Poneto, Indiana
Current Conditions -  °F | °C
As of 5:55 PM on Tuesday 27 Jan 2015 (Local Time) from KHHG Reporting Station
Clear Clear  
Wind Chill: 16°   Ceiling: Unl
Heat Index: 23°   Visibility: 10mi
Dew Point:   Wind: 6mph
Humidity: 49%   Direction: 360°N
Pressure: 30.18"   Gusts: NA
Location:  40.66°N, 85.22°W
Report Text: KHHG 272255Z AUTO 36005KT 10SM CLR M05/M14 A3018 RMK AO2 T10501142
Loading
Personal Weather Stations






























Interactive Weather Map New forecast layout! Learn more

10-Day Weather Forecast

Advertisements
Track Severe Weather on mobile